sensor_id;sensor_type;location;lat;lon;timestamp;pressure;altitude;pressure_sealevel;temperature;humidity
8894;BME280;4483;48.622;9.230;2023-04-24T00:01:20;96887.28;;;11.88;100.00
8894;BME280;4483;48.622;9.230;2023-04-24T00:03:46;96880.66;;;11.84;100.00
8894;BME280;4483;48.622;9.230;2023-04-24T00:06:13;96897.13;;;11.81;100.00
8894;BME280;4483;48.622;9.230;2023-04-24T00:08:43;96892.06;;;11.80;100.00
8894;BME280;4483;48.622;9.230;2023-04-24T00:11:10;96879.16;;;11.80;100.00
8894;BME280;4483;48.622;9.230;2023-04-24T00:13:37;96891.25;;;11.79;100.00
8894;BME280;4483;48.622;9.230;2023-04-24T00:16:04;96900.00;;;11.77;100.00
8894;BME280;4483;48.622;9.230;2023-04-24T00:18:31;96901.75;;;11.76;100.00
8894;BME280;4483;48.622;9.230;2023-04-24T00:20:57;96907.00;;;11.75;99.54
8894;BME280;4483;48.622;9.230;2023-04-24T00:23:24;96910.69;;;11.71;99.84
8894;BME280;4483;48.622;9.230;2023-04-24T00:25:52;96913.47;;;11.68;100.00
8894;BME280;4483;48.622;9.230;2023-04-24T00:28:18;96904.78;;;11.69;100.00
8894;BME280;4483;48.622;9.230;2023-04-24T00:30:45;96898.78;;;11.68;100.00
8894;BME280;4483;48.622;9.230;2023-04-24T00:33:12;96893.72;;;11.67;100.00
8894;BME280;4483;48.622;9.230;2023-04-24T00:35:38;96899.72;;;11.67;99.82
8894;BME280;4483;48.622;9.230;2023-04-24T00:38:05;96897.47;;;11.61;99.98
8894;BME280;4483;48.622;9.230;2023-04-24T00:40:32;96896.72;;;11.59;100.00
8894;BME280;4483;48.622;9.230;2023-04-24T00:43:00;96896.09;;;11.56;100.00
8894;BME280;4483;48.622;9.230;2023-04-24T00:45:27;96902.19;;;11.55;100.00
8894;BME280;4483;48.622;9.230;2023-04-24T00:47:56;96898.94;;;11.51;100.00
8894;BME280;4483;48.622;9.230;2023-04-24T00:50:24;96900.69;;;11.51;100.00
8894;BME280;4483;48.622;9.230;2023-04-24T00:52:51;96897.13;;;11.53;100.00
8894;BME280;4483;48.622;9.230;2023-04-24T00:55:19;96897.03;;;11.55;100.00
8894;BME280;4483;48.622;9.230;2023-04-24T00:57:46;96890.19;;;11.54;100.00
8894;BME280;4483;48.622;9.230;2023-04-24T01:00:15;96894.44;;;11.55;100.00
8894;BME280;4483;48.622;9.230;2023-04-24T01:02:43;96879.16;;;11.52;100.00
8894;BME280;4483;48.622;9.230;2023-04-24T01:05:11;96880.59;;;11.56;100.00
8894;BME280;4483;48.622;9.230;2023-04-24T01:07:39;96872.88;;;11.56;100.00
8894;BME280;4483;48.622;9.230;2023-04-24T01:10:10;96878.88;;;11.56;100.00
8894;BME280;4483;48.622;9.230;2023-04-24T01:12:37;96871.03;;;11.58;100.00
8894;BME280;4483;48.622;9.230;2023-04-24T01:15:04;96863.50;;;11.55;100.00
8894;BME280;4483;48.622;9.230;2023-04-24T01:17:33;96861.81;;;11.54;100.00
8894;BME280;4483;48.622;9.230;2023-04-24T01:20:00;96859.44;;;11.51;100.00
8894;BME280;4483;48.622;9.230;2023-04-24T01:22:32;96870.69;;;11.50;100.00
8894;BME280;4483;48.622;9.230;2023-04-24T01:24:59;96867.44;;;11.46;100.00
8894;BME280;4483;48.622;9.230;2023-04-24T01:27:26;96864.94;;;11.45;100.00
8894;BME280;4483;48.622;9.230;2023-04-24T01:29:52;96858.13;;;11.44;100.00
8894;BME280;4483;48.622;9.230;2023-04-24T01:32:19;96853.72;;;11.46;100.00
8894;BME280;4483;48.622;9.230;2023-04-24T01:34:46;96858.78;;;11.47;100.00
8894;BME280;4483;48.622;9.230;2023-04-24T01:37:13;96857.84;;;11.48;100.00
8894;BME280;4483;48.622;9.230;2023-04-24T01:39:42;96850.22;;;11.47;100.00
8894;BME280;4483;48.622;9.230;2023-04-24T01:42:09;96855.38;;;11.47;100.00
8894;BME280;4483;48.622;9.230;2023-04-24T01:44:35;96858.97;;;11.44;100.00
8894;BME280;4483;48.622;9.230;2023-04-24T01:47:02;96856.56;;;11.41;100.00
8894;BME280;4483;48.622;9.230;2023-04-24T01:49:29;96851.50;;;11.40;100.00
8894;BME280;4483;48.622;9.230;2023-04-24T01:51:56;96852.25;;;11.42;100.00
8894;BME280;4483;48.622;9.230;2023-04-24T01:54:22;96858.03;;;11.45;100.00
8894;BME280;4483;48.622;9.230;2023-04-24T01:56:50;96862.19;;;11.48;100.00
8894;BME280;4483;48.622;9.230;2023-04-24T01:59:17;96854.25;;;11.51;100.00
8894;BME280;4483;48.622;9.230;2023-04-24T02:01:44;96857.69;;;11.51;100.00
8894;BME280;4483;48.622;9.230;2023-04-24T02:04:11;96858.53;;;11.52;100.00
8894;BME280;4483;48.622;9.230;2023-04-24T02:06:37;96861.00;;;11.53;100.00
8894;BME280;4483;48.622;9.230;2023-04-24T02:09:04;96859.06;;;11.57;100.00
8894;BME280;4483;48.622;9.230;2023-04-24T02:11:31;96853.72;;;11.60;100.00
8894;BME280;4483;48.622;9.230;2023-04-24T02:13:59;96863.28;;;11.58;100.00
8894;BME280;4483;48.622;9.230;2023-04-24T02:16:26;96863.50;;;11.55;100.00
8894;BME280;4483;48.622;9.230;2023-04-24T02:18:52;96862.00;;;11.51;100.00
8894;BME280;4483;48.622;9.230;2023-04-24T02:21:19;96862.94;;;11.50;100.00
8894;BME280;4483;48.622;9.230;2023-04-24T02:23:45;96862.00;;;11.51;100.00
8894;BME280;4483;48.622;9.230;2023-04-24T02:26:12;96852.53;;;11.51;100.00
8894;BME280;4483;48.622;9.230;2023-04-24T02:28:39;96858.53;;;11.52;100.00
8894;BME280;4483;48.622;9.230;2023-04-24T02:31:07;96853.53;;;11.49;100.00
8894;BME280;4483;48.622;9.230;2023-04-24T02:33:33;96851.13;;;11.46;100.00
8894;BME280;4483;48.622;9.230;2023-04-24T02:36:00;96857.94;;;11.47;100.00
8894;BME280;4483;48.622;9.230;2023-04-24T02:38:27;96862.34;;;11.45;100.00
8894;BME280;4483;48.622;9.230;2023-04-24T02:40:54;96862.56;;;11.42;100.00
8894;BME280;4483;48.622;9.230;2023-04-24T02:43:20;96862.66;;;11.40;100.00
8894;BME280;4483;48.622;9.230;2023-04-24T02:45:47;96859.22;;;11.40;100.00
8894;BME280;4483;48.622;9.230;2023-04-24T02:48:15;96852.59;;;11.36;100.00
8894;BME280;4483;48.622;9.230;2023-04-24T02:50:42;96859.41;;;11.37;100.00
8894;BME280;4483;48.622;9.230;2023-04-24T02:53:08;96868.81;;;11.38;100.00
8894;BME280;4483;48.622;9.230;2023-04-24T02:55:35;96858.50;;;11.38;100.00
8894;BME280;4483;48.622;9.230;2023-04-24T02:58:02;96869.75;;;11.37;100.00
8894;BME280;4483;48.622;9.230;2023-04-24T03:00:28;96858.69;;;11.35;100.00
8894;BME280;4483;48.622;9.230;2023-04-24T03:02:55;96864.09;;;11.30;100.00
8894;BME280;4483;48.622;9.230;2023-04-24T03:05:23;96860.72;;;11.30;100.00
8894;BME280;4483;48.622;9.230;2023-04-24T03:07:50;96866.59;;;11.32;100.00
8894;BME280;4483;48.622;9.230;2023-04-24T03:10:17;96863.28;;;11.30;100.00
8894;BME280;4483;48.622;9.230;2023-04-24T03:12:44;96865.78;;;11.31;100.00
8894;BME280;4483;48.622;9.230;2023-04-24T03:15:11;96857.19;;;11.31;100.00
8894;BME280;4483;48.622;9.230;2023-04-24T03:17:37;96849.47;;;11.31;100.00
8894;BME280;4483;48.622;9.230;2023-04-24T03:20:05;96842.91;;;11.25;100.00
8894;BME280;4483;48.622;9.230;2023-04-24T03:22:34;96846.50;;;11.23;100.00
8894;BME280;4483;48.622;9.230;2023-04-24T03:25:01;96841.34;;;11.23;100.00
8894;BME280;4483;48.622;9.230;2023-04-24T03:27:28;96843.91;;;11.23;100.00
8894;BME280;4483;48.622;9.230;2023-04-24T03:29:55;96843.56;;;11.14;100.00
8894;BME280;4483;48.622;9.230;2023-04-24T03:32:22;96843.00;;;11.09;100.00
8894;BME280;4483;48.622;9.230;2023-04-24T03:34:49;96846.38;;;11.10;100.00
8894;BME280;4483;48.622;9.230;2023-04-24T03:37:16;96851.38;;;11.13;100.00
8894;BME280;4483;48.622;9.230;2023-04-24T03:39:44;96850.34;;;11.15;100.00
8894;BME280;4483;48.622;9.230;2023-04-24T03:42:11;96844.19;;;11.18;100.00
8894;BME280;4483;48.622;9.230;2023-04-24T03:44:37;96846.69;;;11.20;100.00
8894;BME280;4483;48.622;9.230;2023-04-24T03:47:04;96845.09;;;11.17;100.00
8894;BME280;4483;48.622;9.230;2023-04-24T03:49:31;96843.47;;;11.16;100.00
8894;BME280;4483;48.622;9.230;2023-04-24T03:51:57;96848.53;;;11.18;100.00
8894;BME280;4483;48.622;9.230;2023-04-24T03:54:24;96844.19;;;11.18;100.00
8894;BME280;4483;48.622;9.230;2023-04-24T03:56:52;96845.03;;;11.19;100.00
8894;BME280;4483;48.622;9.230;2023-04-24T03:59:19;96842.63;;;11.15;100.00
8894;BME280;4483;48.622;9.230;2023-04-24T04:01:45;96838.41;;;11.14;100.00
8894;BME280;4483;48.622;9.230;2023-04-24T04:04:12;96835.06;;;11.12;100.00
8894;BME280;4483;48.622;9.230;2023-04-24T04:06:39;96846.22;;;11.13;100.00
8894;BME280;4483;48.622;9.230;2023-04-24T04:09:05;96845.38;;;11.12;100.00
8894;BME280;4483;48.622;9.230;2023-04-24T04:11:32;96859.19;;;11.11;100.00
8894;BME280;4483;48.622;9.230;2023-04-24T04:14:00;96866.19;;;11.09;100.00
8894;BME280;4483;48.622;9.230;2023-04-24T04:16:27;96867.19;;;11.07;100.00
8894;BME280;4483;48.622;9.230;2023-04-24T04:18:53;96874.28;;;11.03;100.00
8894;BME280;4483;48.622;9.230;2023-04-24T04:21:21;96870.22;;;10.99;100.00
8894;BME280;4483;48.622;9.230;2023-04-24T04:23:47;96879.03;;;10.95;100.00
8894;BME280;4483;48.622;9.230;2023-04-24T04:26:14;96883.53;;;10.92;100.00
8894;BME280;4483;48.622;9.230;2023-04-24T04:28:41;96877.72;;;10.88;100.00
8894;BME280;4483;48.622;9.230;2023-04-24T04:31:11;96885.63;;;10.85;100.00
8894;BME280;4483;48.622;9.230;2023-04-24T04:33:38;96879.84;;;10.82;100.00
8894;BME280;4483;48.622;9.230;2023-04-24T04:36:05;96884.97;;;10.82;100.00
8894;BME280;4483;48.622;9.230;2023-04-24T04:38:31;96900.34;;;10.83;100.00
8894;BME280;4483;48.622;9.230;2023-04-24T04:40:58;96895.19;;;10.83;100.00
8894;BME280;4483;48.622;9.230;2023-04-24T04:43:25;96903.66;;;10.85;100.00
8894;BME280;4483;48.622;9.230;2023-04-24T04:45:52;96915.63;;;10.86;100.00
8894;BME280;4483;48.622;9.230;2023-04-24T04:48:21;96913.22;;;10.83;100.00
8894;BME280;4483;48.622;9.230;2023-04-24T04:50:47;96926.97;;;10.84;100.00
8894;BME280;4483;48.622;9.230;2023-04-24T04:53:14;96928.78;;;10.82;100.00
8894;BME280;4483;48.622;9.230;2023-04-24T04:55:41;96926.28;;;10.80;100.00
8894;BME280;4483;48.622;9.230;2023-04-24T04:58:08;96948.09;;;10.75;100.00
8894;BME280;4483;48.622;9.230;2023-04-24T05:00:34;96951.66;;;10.72;100.00
8894;BME280;4483;48.622;9.230;2023-04-24T05:03:03;96964.69;;;10.69;100.00
8894;BME280;4483;48.622;9.230;2023-04-24T05:05:31;96960.28;;;10.71;100.00
8894;BME280;4483;48.622;9.230;2023-04-24T05:07:57;96963.28;;;10.64;100.00
8894;BME280;4483;48.622;9.230;2023-04-24T05:10:24;96964.94;;;10.65;100.00
8894;BME280;4483;48.622;9.230;2023-04-24T05:12:51;96972.84;;;10.62;100.00
8894;BME280;4483;48.622;9.230;2023-04-24T05:15:17;96980.41;;;10.65;100.00
8894;BME280;4483;48.622;9.230;2023-04-24T05:17:44;96985.53;;;10.65;100.00
8894;BME280;4483;48.622;9.230;2023-04-24T05:20:11;96998.84;;;10.57;100.00
8894;BME280;4483;48.622;9.230;2023-04-24T05:22:39;96985.63;;;10.48;100.00
8894;BME280;4483;48.622;9.230;2023-04-24T05:25:06;96987.44;;;10.46;100.00
8894;BME280;4483;48.622;9.230;2023-04-24T05:27:33;96998.44;;;10.49;100.00
8894;BME280;4483;48.622;9.230;2023-04-24T05:30:00;97009.63;;;10.48;100.00
8894;BME280;4483;48.622;9.230;2023-04-24T05:32:27;97000.41;;;10.44;100.00
8894;BME280;4483;48.622;9.230;2023-04-24T05:34:54;97010.78;;;10.43;100.00
8894;BME280;4483;48.622;9.230;2023-04-24T05:37:20;97019.34;;;10.43;100.00
8894;BME280;4483;48.622;9.230;2023-04-24T05:39:48;97033.28;;;10.39;100.00
8894;BME280;4483;48.622;9.230;2023-04-24T05:42:15;97036.63;;;10.41;100.00
8894;BME280;4483;48.622;9.230;2023-04-24T05:44:42;97034.03;;;10.41;100.00
8894;BME280;4483;48.622;9.230;2023-04-24T05:47:08;97046.00;;;10.42;100.00
8894;BME280;4483;48.622;9.230;2023-04-24T05:49:35;97023.75;;;10.41;100.00
8894;BME280;4483;48.622;9.230;2023-04-24T05:52:02;97033.72;;;10.47;100.00
8894;BME280;4483;48.622;9.230;2023-04-24T05:54:30;97036.81;;;10.54;100.00
8894;BME280;4483;48.622;9.230;2023-04-24T05:56:58;97034.81;;;10.59;100.00
8894;BME280;4483;48.622;9.230;2023-04-24T05:59:26;97048.22;;;10.65;100.00
8894;BME280;4483;48.622;9.230;2023-04-24T06:01:53;97046.97;;;10.72;100.00
8894;BME280;4483;48.622;9.230;2023-04-24T06:04:20;97049.28;;;10.77;100.00
8894;BME280;4483;48.622;9.230;2023-04-24T06:06:46;97050.69;;;10.82;100.00
8894;BME280;4483;48.622;9.230;2023-04-24T06:09:16;97057.25;;;10.88;100.00
8894;BME280;4483;48.622;9.230;2023-04-24T06:11:43;97056.94;;;10.94;100.00
8894;BME280;4483;48.622;9.230;2023-04-24T06:14:11;97048.78;;;11.01;100.00
8894;BME280;4483;48.622;9.230;2023-04-24T06:16:37;97063.75;;;11.10;100.00
8894;BME280;4483;48.622;9.230;2023-04-24T06:19:05;97059.75;;;11.21;100.00
8894;BME280;4483;48.622;9.230;2023-04-24T06:21:31;97043.91;;;11.42;100.00
8894;BME280;4483;48.622;9.230;2023-04-24T06:23:58;97041.53;;;11.69;100.00
8894;BME280;4483;48.622;9.230;2023-04-24T06:26:25;97048.06;;;12.04;100.00
8894;BME280;4483;48.622;9.230;2023-04-24T06:28:52;97034.41;;;12.58;100.00
8894;BME280;4483;48.622;9.230;2023-04-24T06:31:20;97037.44;;;13.07;100.00
8894;BME280;4483;48.622;9.230;2023-04-24T06:33:47;97042.75;;;13.57;100.00
8894;BME280;4483;48.622;9.230;2023-04-24T06:36:14;97038.47;;;13.95;100.00
8894;BME280;4483;48.622;9.230;2023-04-24T06:38:41;97027.53;;;14.17;97.72
8894;BME280;4483;48.622;9.230;2023-04-24T06:41:08;97026.72;;;14.29;95.29
8894;BME280;4483;48.622;9.230;2023-04-24T06:43:34;97027.31;;;14.45;96.16
8894;BME280;4483;48.622;9.230;2023-04-24T06:46:01;97035.16;;;14.69;94.73
8894;BME280;4483;48.622;9.230;2023-04-24T06:48:30;97025.81;;;14.79;91.85
8894;BME280;4483;48.622;9.230;2023-04-24T06:50:56;97024.91;;;15.03;91.79
8894;BME280;4483;48.622;9.230;2023-04-24T06:53:23;97020.78;;;15.25;89.68
8894;BME280;4483;48.622;9.230;2023-04-24T06:55:50;97036.19;;;15.39;87.63
8894;BME280;4483;48.622;9.230;2023-04-24T06:58:17;97036.31;;;15.61;87.64
8894;BME280;4483;48.622;9.230;2023-04-24T07:00:44;97038.00;;;15.62;86.58
8894;BME280;4483;48.622;9.230;2023-04-24T07:03:10;97039.94;;;15.47;85.14
8894;BME280;4483;48.622;9.230;2023-04-24T07:05:38;97040.59;;;15.26;81.88
8894;BME280;4483;48.622;9.230;2023-04-24T07:08:05;97043.66;;;14.83;81.88
8894;BME280;4483;48.622;9.230;2023-04-24T07:10:34;97037.50;;;14.48;83.08
8894;BME280;4483;48.622;9.230;2023-04-24T07:13:01;97033.06;;;14.50;83.34
8894;BME280;4483;48.622;9.230;2023-04-24T07:15:27;97033.97;;;14.49;84.43
8894;BME280;4483;48.622;9.230;2023-04-24T07:17:54;97034.50;;;14.29;82.86
8894;BME280;4483;48.622;9.230;2023-04-24T07:20:21;97049.50;;;13.99;81.48
8894;BME280;4483;48.622;9.230;2023-04-24T07:22:49;97047.97;;;13.70;81.88
8894;BME280;4483;48.622;9.230;2023-04-24T07:25:17;97060.09;;;13.43;83.75
8894;BME280;4483;48.622;9.230;2023-04-24T07:27:43;97070.16;;;13.21;85.50
8894;BME280;4483;48.622;9.230;2023-04-24T07:30:11;97065.97;;;13.05;86.34
8894;BME280;4483;48.622;9.230;2023-04-24T07:32:38;97066.69;;;12.93;87.26
8894;BME280;4483;48.622;9.230;2023-04-24T07:35:05;97079.19;;;12.87;87.40
8894;BME280;4483;48.622;9.230;2023-04-24T07:37:32;97078.59;;;12.82;88.80
8894;BME280;4483;48.622;9.230;2023-04-24T07:40:00;97086.28;;;12.83;88.64
8894;BME280;4483;48.622;9.230;2023-04-24T07:42:27;97083.13;;;13.06;89.16
8894;BME280;4483;48.622;9.230;2023-04-24T07:44:55;97093.06;;;13.80;88.58
8894;BME280;4483;48.622;9.230;2023-04-24T07:47:22;97098.03;;;14.60;85.84
8894;BME280;4483;48.622;9.230;2023-04-24T07:49:49;97092.50;;;15.38;84.31
8894;BME280;4483;48.622;9.230;2023-04-24T07:52:15;97086.78;;;16.04;83.00
8894;BME280;4483;48.622;9.230;2023-04-24T07:54:42;97089.28;;;16.51;81.59
8894;BME280;4483;48.622;9.230;2023-04-24T07:57:10;97098.34;;;16.46;78.71
8894;BME280;4483;48.622;9.230;2023-04-24T07:59:37;97084.56;;;16.22;78.19
8894;BME280;4483;48.622;9.230;2023-04-24T08:02:03;97102.47;;;16.48;77.59
8894;BME280;4483;48.622;9.230;2023-04-24T08:04:31;97099.19;;;17.13;76.88
8894;BME280;4483;48.622;9.230;2023-04-24T08:06:58;97096.75;;;17.65;70.69
8894;BME280;4483;48.622;9.230;2023-04-24T08:09:25;97109.22;;;17.82;68.02
8894;BME280;4483;48.622;9.230;2023-04-24T08:11:51;97105.59;;;17.73;67.72
8894;BME280;4483;48.622;9.230;2023-04-24T08:14:19;97108.50;;;17.59;64.68
8894;BME280;4483;48.622;9.230;2023-04-24T08:16:46;97112.84;;;18.01;65.43
8894;BME280;4483;48.622;9.230;2023-04-24T08:19:13;97123.72;;;17.75;64.01
8894;BME280;4483;48.622;9.230;2023-04-24T08:21:39;97120.25;;;17.32;62.62
8894;BME280;4483;48.622;9.230;2023-04-24T08:24:06;97123.91;;;16.96;62.51
8894;BME280;4483;48.622;9.230;2023-04-24T08:26:33;97129.19;;;16.50;60.29
8894;BME280;4483;48.622;9.230;2023-04-24T08:29:00;97147.47;;;16.03;59.47
8894;BME280;4483;48.622;9.230;2023-04-24T08:31:28;97130.56;;;15.50;60.35
8894;BME280;4483;48.622;9.230;2023-04-24T08:33:55;97155.75;;;15.25;61.02
8894;BME280;4483;48.622;9.230;2023-04-24T08:36:21;97151.72;;;15.57;58.52
8894;BME280;4483;48.622;9.230;2023-04-24T08:38:48;97147.97;;;15.84;57.89
8894;BME280;4483;48.622;9.230;2023-04-24T08:41:15;97147.91;;;15.97;53.82
8894;BME280;4483;48.622;9.230;2023-04-24T08:43:45;97145.09;;;16.00;53.47
8894;BME280;4483;48.622;9.230;2023-04-24T08:46:13;97137.03;;;16.27;53.56
8894;BME280;4483;48.622;9.230;2023-04-24T08:48:41;97145.31;;;16.66;52.70
8894;BME280;4483;48.622;9.230;2023-04-24T08:51:08;97147.13;;;16.88;51.98
8894;BME280;4483;48.622;9.230;2023-04-24T08:53:36;97138.59;;;17.19;49.84
8894;BME280;4483;48.622;9.230;2023-04-24T08:56:03;97131.13;;;17.15;48.81
8894;BME280;4483;48.622;9.230;2023-04-24T08:58:31;97135.50;;;17.14;49.07
8894;BME280;4483;48.622;9.230;2023-04-24T09:00:58;97131.00;;;17.27;48.88
8894;BME280;4483;48.622;9.230;2023-04-24T09:03:27;97136.00;;;17.19;49.74
8894;BME280;4483;48.622;9.230;2023-04-24T09:05:55;97132.81;;;17.04;49.76
8894;BME280;4483;48.622;9.230;2023-04-24T09:08:24;97152.78;;;16.82;50.08
8894;BME280;4483;48.622;9.230;2023-04-24T09:10:51;97148.66;;;16.45;50.15
8894;BME280;4483;48.622;9.230;2023-04-24T09:13:18;97143.19;;;16.60;50.07
8894;BME280;4483;48.622;9.230;2023-04-24T09:15:46;97140.50;;;17.06;49.89
8894;BME280;4483;48.622;9.230;2023-04-24T09:18:12;97138.44;;;17.65;49.32
8894;BME280;4483;48.622;9.230;2023-04-24T09:20:58;97147.84;;;18.40;47.87
8894;BME280;4483;48.622;9.230;2023-04-24T09:23:27;97148.00;;;18.80;47.26
8894;BME280;4483;48.622;9.230;2023-04-24T09:25:54;97167.66;;;18.63;45.13
8894;BME280;4483;48.622;9.230;2023-04-24T09:28:25;97156.16;;;18.14;44.69
8894;BME280;4483;48.622;9.230;2023-04-24T09:31:05;97169.47;;;18.31;44.56
8894;BME280;4483;48.622;9.230;2023-04-24T09:33:32;97145.81;;;18.85;44.62
8894;BME280;4483;48.622;9.230;2023-04-24T09:36:01;97148.38;;;19.36;42.34
8894;BME280;4483;48.622;9.230;2023-04-24T09:38:32;97150.84;;;19.77;42.08
8894;BME280;4483;48.622;9.230;2023-04-24T09:41:00;97144.94;;;19.94;41.75
8894;BME280;4483;48.622;9.230;2023-04-24T09:43:28;97154.22;;;19.58;40.81
8894;BME280;4483;48.622;9.230;2023-04-24T09:45:55;97163.16;;;18.95;41.92
8894;BME280;4483;48.622;9.230;2023-04-24T09:48:30;97169.28;;;18.23;41.35
8894;BME280;4483;48.622;9.230;2023-04-24T09:50:57;97162.38;;;17.59;41.71
8894;BME280;4483;48.622;9.230;2023-04-24T09:53:26;97174.66;;;17.24;42.34
8894;BME280;4483;48.622;9.230;2023-04-24T09:55:53;97174.66;;;16.90;42.52
8894;BME280;4483;48.622;9.230;2023-04-24T09:58:24;97189.31;;;16.80;42.88
8894;BME280;4483;48.622;9.230;2023-04-24T10:00:53;97171.34;;;17.55;41.80
8894;BME280;4483;48.622;9.230;2023-04-24T10:03:21;97176.47;;;18.31;40.99
8894;BME280;4483;48.622;9.230;2023-04-24T10:05:51;97189.88;;;18.78;39.44
8894;BME280;4483;48.622;9.230;2023-04-24T10:08:19;97155.00;;;19.40;39.32
8894;BME280;4483;48.622;9.230;2023-04-24T10:10:47;97158.44;;;19.99;38.38
8894;BME280;4483;48.622;9.230;2023-04-24T10:13:14;97161.03;;;19.89;37.01
8894;BME280;4483;48.622;9.230;2023-04-24T10:15:42;97159.81;;;20.03;37.59
8894;BME280;4483;48.622;9.230;2023-04-24T10:18:09;97162.88;;;20.46;37.28
8894;BME280;4483;48.622;9.230;2023-04-24T10:20:38;97164.19;;;20.69;36.63
8894;BME280;4483;48.622;9.230;2023-04-24T10:23:05;97160.09;;;20.48;36.49
8894;BME280;4483;48.622;9.230;2023-04-24T10:25:33;97171.16;;;20.32;36.44
8894;BME280;4483;48.622;9.230;2023-04-24T10:28:02;97185.91;;;19.65;36.80
8894;BME280;4483;48.622;9.230;2023-04-24T10:30:30;97183.69;;;19.00;37.75
8894;BME280;4483;48.622;9.230;2023-04-24T10:33:00;97194.88;;;18.50;38.38
8894;BME280;4483;48.622;9.230;2023-04-24T10:35:30;97201.44;;;18.13;39.32
8894;BME280;4483;48.622;9.230;2023-04-24T10:38:00;97200.47;;;18.14;39.80
8894;BME280;4483;48.622;9.230;2023-04-24T10:40:30;97220.91;;;18.61;39.79
8894;BME280;4483;48.622;9.230;2023-04-24T10:42:57;97202.09;;;19.29;39.13
8894;BME280;4483;48.622;9.230;2023-04-24T10:45:25;97213.25;;;19.10;38.73
8894;BME280;4483;48.622;9.230;2023-04-24T10:47:54;97216.16;;;18.86;38.88
8894;BME280;4483;48.622;9.230;2023-04-24T10:50:22;97224.44;;;18.71;39.67
8894;BME280;4483;48.622;9.230;2023-04-24T10:52:49;97225.34;;;18.60;39.98
8894;BME280;4483;48.622;9.230;2023-04-24T10:55:17;97239.09;;;18.62;40.34
8894;BME280;4483;48.622;9.230;2023-04-24T10:58:05;97241.41;;;18.34;40.68
8894;BME280;4483;48.622;9.230;2023-04-24T11:00:31;97235.34;;;18.01;41.19
8894;BME280;4483;48.622;9.230;2023-04-24T11:02:58;97243.78;;;17.83;42.11
8894;BME280;4483;48.622;9.230;2023-04-24T11:05:49;97257.69;;;17.50;42.62
8894;BME280;4483;48.622;9.230;2023-04-24T11:08:22;97256.09;;;17.26;43.00
8894;BME280;4483;48.622;9.230;2023-04-24T11:10:55;97259.50;;;17.04;43.72
8894;BME280;4483;48.622;9.230;2023-04-24T11:13:25;97255.09;;;16.93;43.97
8894;BME280;4483;48.622;9.230;2023-04-24T11:16:19;97261.94;;;16.83;44.20
8894;BME280;4483;48.622;9.230;2023-04-24T11:18:50;97257.28;;;16.76;45.02
8894;BME280;4483;48.622;9.230;2023-04-24T11:21:20;97263.38;;;16.98;44.89
8894;BME280;4483;48.622;9.230;2023-04-24T11:23:48;97265.03;;;16.99;44.95
8894;BME280;4483;48.622;9.230;2023-04-24T11:26:18;97271.84;;;16.78;45.33
8894;BME280;4483;48.622;9.230;2023-04-24T11:28:50;97270.06;;;16.68;45.20
8894;BME280;4483;48.622;9.230;2023-04-24T11:31:37;97265.91;;;16.42;45.92
8894;BME280;4483;48.622;9.230;2023-04-24T11:34:08;97270.88;;;16.21;46.23
8894;BME280;4483;48.622;9.230;2023-04-24T11:36:36;97282.81;;;16.00;46.74
8894;BME280;4483;48.622;9.230;2023-04-24T11:39:03;97268.41;;;15.83;46.57
8894;BME280;4483;48.622;9.230;2023-04-24T11:41:30;97280.34;;;15.86;47.21
8894;BME280;4483;48.622;9.230;2023-04-24T11:43:58;97289.06;;;15.85;47.34
8894;BME280;4483;48.622;9.230;2023-04-24T11:46:27;97298.44;;;15.75;47.61
8894;BME280;4483;48.622;9.230;2023-04-24T11:48:55;97287.47;;;15.59;47.59
8894;BME280;4483;48.622;9.230;2023-04-24T11:51:22;97297.25;;;15.43;48.06
8894;BME280;4483;48.622;9.230;2023-04-24T11:53:49;97306.97;;;15.39;48.44
8894;BME280;4483;48.622;9.230;2023-04-24T11:56:17;97290.16;;;15.32;48.41
8894;BME280;4483;48.622;9.230;2023-04-24T11:58:45;97296.19;;;15.33;48.12
8894;BME280;4483;48.622;9.230;2023-04-24T12:01:13;97293.16;;;15.76;48.31
8894;BME280;4483;48.622;9.230;2023-04-24T12:03:40;97300.03;;;16.84;46.40
8894;BME280;4483;48.622;9.230;2023-04-24T12:06:10;97290.41;;;17.31;45.77
8894;BME280;4483;48.622;9.230;2023-04-24T12:08:37;97295.88;;;17.39;45.05
8894;BME280;4483;48.622;9.230;2023-04-24T12:11:05;97295.78;;;17.62;44.46
8894;BME280;4483;48.622;9.230;2023-04-24T12:13:33;97303.34;;;17.43;44.55
8894;BME280;4483;48.622;9.230;2023-04-24T12:16:02;97300.69;;;17.10;44.14
8894;BME280;4483;48.622;9.230;2023-04-24T12:18:31;97307.44;;;16.78;44.58
8894;BME280;4483;48.622;9.230;2023-04-24T12:21:15;97305.09;;;16.51;45.61
8894;BME280;4483;48.622;9.230;2023-04-24T12:23:43;97312.63;;;16.31;45.43
8894;BME280;4483;48.622;9.230;2023-04-24T12:26:10;97327.56;;;16.16;45.78
8894;BME280;4483;48.622;9.230;2023-04-24T12:28:38;97329.69;;;15.98;46.03
8894;BME280;4483;48.622;9.230;2023-04-24T12:31:05;97316.81;;;15.84;46.43
8894;BME280;4483;48.622;9.230;2023-04-24T12:33:34;97331.59;;;15.71;47.10
8894;BME280;4483;48.622;9.230;2023-04-24T12:36:02;97323.31;;;15.54;46.99
8894;BME280;4483;48.622;9.230;2023-04-24T12:38:29;97331.34;;;15.37;47.49
8894;BME280;4483;48.622;9.230;2023-04-24T12:41:03;97337.00;;;15.31;48.48
8894;BME280;4483;48.622;9.230;2023-04-24T12:43:30;97330.63;;;15.22;48.55
8894;BME280;4483;48.622;9.230;2023-04-24T12:45:57;97328.75;;;15.24;48.55
8894;BME280;4483;48.622;9.230;2023-04-24T12:48:24;97335.19;;;15.19;49.07
8894;BME280;4483;48.622;9.230;2023-04-24T12:50:52;97334.56;;;15.15;49.07
8894;BME280;4483;48.622;9.230;2023-04-24T12:53:19;97326.69;;;15.17;49.52
8894;BME280;4483;48.622;9.230;2023-04-24T12:55:45;97331.06;;;15.16;49.73
8894;BME280;4483;48.622;9.230;2023-04-24T12:58:18;97320.88;;;15.26;49.43
8894;BME280;4483;48.622;9.230;2023-04-24T13:00:45;97333.16;;;15.36;49.33
8894;BME280;4483;48.622;9.230;2023-04-24T13:03:12;97327.13;;;15.23;50.02
8894;BME280;4483;48.622;9.230;2023-04-24T13:05:38;97349.22;;;15.29;50.54
8894;BME280;4483;48.622;9.230;2023-04-24T13:08:07;97327.13;;;15.61;51.28
8894;BME280;4483;48.622;9.230;2023-04-24T13:10:34;97315.56;;;15.90;50.47
8894;BME280;4483;48.622;9.230;2023-04-24T13:13:00;97302.06;;;16.21;50.69
8894;BME280;4483;48.622;9.230;2023-04-24T13:15:27;97303.28;;;16.28;49.63
8894;BME280;4483;48.622;9.230;2023-04-24T13:17:54;97308.34;;;16.06;49.22
8894;BME280;4483;48.622;9.230;2023-04-24T13:20:20;97293.22;;;16.24;49.78